Airfield :
LOGIN :

Register | Disclaimer

   EN    FR    IT 

 










Legend :    VFR   Marginal VFR   IFR   Intensive IFR   Very Intensive IFR
Visi :
Ceiling :
>= 8 km
>= 3000ft
5 to 8 km
1000 to 3000 ft
1500m to 5 km
500 to 1000 ft
800 to 1500m
200 to 500 ft
< 800m
< 200 ft
Symbols :   Thunderstorms  Fog  Heavy snow  Heavy precipitations  Wind > 20 kt
SIGMETs :     Misc.  Thunderstorms  Icing  Turbulence  Mountain Waves  Volcanic Ashes






- Airport Elevation : 46 ft
- IATA code : PAF


LPMT - Montijo Air Base

CURRENT METAR :
  • 080700Z 04007KT 9999 FEW025 SCT042 07/06 Q1017

EXPIRED METARs :
  • 080600Z 03006KT 9999 FEW025 SCT045 06/06 Q1017
  • 080500Z 04009KT 9999 VCSH FEW025 SCT045 07/06 Q1016

TAF TAF LPMT
Valid from the 08 at 06:00 until the 09 at 06:00 UTC


080506Z 0806/0906 04008KT 9999 SCT025
BECMG 0806/0809 09012KT
TEMPO 0806/0824 4000 SHRA SCT015 SCT020CB BKN025
PROB30
TEMPO 0806/0820 2000 +TSRA BKN014 BKN020CB
TEMPO 0812/0817 09015G25KT
PROB40
TEMPO 0900/0906 BKN014



MET'MAP, your aeronautical weather chart ! - Copyright ORBIFLY December 2007 - Disclaimer

ORBIFLY MET'MAP TEAM :

Programming & Development : Alexandra Zaïnal
Original concept : Baudouin d'Aumeries
Technical & hardware support : Manuel Goepfert
Assistance : Marc-Olivier Méhu




SOURCES & CREDITS :

   NOAA